createdAt,value
2022-08-05T04:08:46.206Z,53.67
2022-08-05T04:11:52.596Z,53.67
2022-08-05T04:14:57.580Z,54.65
2022-08-05T04:18:03.971Z,54.56
2022-08-05T04:21:10.887Z,54.44
2022-08-05T04:24:18.839Z,54.67
2022-08-05T04:27:41.925Z,54.45
2022-08-05T04:30:48.130Z,54.32
2022-08-05T04:34:17.375Z,54.15
2022-08-05T04:37:12.777Z,54.11
2022-08-05T04:40:14.993Z,54.20
2022-08-05T04:43:22.220Z,54.02
2022-08-05T04:46:28.473Z,54.28
2022-08-05T04:49:39.301Z,54.14
2022-08-05T04:52:53.081Z,54.02
2022-08-05T04:56:14.429Z,54.28
2022-08-05T04:59:24.215Z,53.95
2022-08-05T05:02:41.893Z,53.84
2022-08-05T05:06:40.280Z,53.12
2022-08-05T05:09:07.777Z,53.07
2022-08-05T05:12:09.875Z,51.93
2022-08-05T05:15:13.969Z,51.53
2022-08-05T05:18:28.001Z,51.99
2022-08-05T05:21:33.293Z,51.05
2022-08-05T05:24:56.421Z,51.34
2022-08-05T05:27:57.874Z,49.75
2022-08-05T05:30:59.974Z,48.74
2022-08-05T05:34:02.997Z,49.27
2022-08-05T05:37:05.103Z,48.60
2022-08-05T05:40:08.781Z,46.41
2022-08-05T05:43:13.759Z,46.56
2022-08-05T05:46:18.935Z,44.94
2022-08-05T05:49:22.616Z,43.96
2022-08-05T05:52:30.048Z,42.86
2022-08-05T05:55:52.311Z,42.70
2022-08-05T05:58:57.650Z,42.96
2022-08-05T06:02:05.721Z,42.10
2022-08-05T06:05:16.977Z,42.11
2022-08-05T06:08:32.321Z,41.13
2022-08-05T06:11:35.719Z,41.73
2022-08-05T06:14:44.727Z,41.33
2022-08-05T06:17:52.800Z,40.43
2022-08-05T06:20:56.244Z,40.82
2022-08-05T06:23:59.666Z,40.54
2022-08-05T06:27:04.271Z,41.99
2022-08-05T06:30:17.994Z,39.12
2022-08-05T06:33:33.417Z,39.23
2022-08-05T06:36:57.293Z,38.39
2022-08-05T06:40:00.663Z,39.11
2022-08-05T06:43:04.839Z,39.05
2022-08-05T06:46:07.531Z,38.31
2022-08-05T06:49:09.938Z,38.36
2022-08-05T06:52:36.908Z,36.73
2022-08-05T06:55:37.034Z,37.15
2022-08-05T06:58:39.501Z,36.89
2022-08-05T07:01:42.553Z,37.85
2022-08-05T07:04:44.664Z,37.05
2022-08-05T07:07:48.997Z,37.30
2022-08-05T07:10:53.263Z,36.34
2022-08-05T07:14:15.607Z,35.04
2022-08-05T07:18:02.048Z,37.71
2022-08-05T07:20:45.211Z,37.94
2022-08-05T07:23:49.995Z,36.94
2022-08-05T07:26:54.644Z,35.99
2022-08-05T07:30:27.436Z,35.98
2022-08-05T07:33:21.435Z,35.82
2022-08-05T07:36:39.430Z,36.09
2022-08-05T07:40:26.992Z,36.21
2022-08-05T07:43:04.919Z,35.19
2022-08-05T07:46:24.494Z,35.11
2022-08-05T07:49:27.681Z,34.17
2022-08-05T07:52:30.436Z,34.35
2022-08-05T07:56:05.141Z,34.50
2022-08-05T07:58:58.763Z,34.38
2022-08-05T08:02:02.361Z,34.26
2022-08-05T08:05:06.473Z,33.25
2022-08-05T08:08:12.603Z,34.30
2022-08-05T08:11:17.724Z,33.97
2022-08-05T08:14:29.901Z,34.23
2022-08-05T08:17:33.052Z,33.49
2022-08-05T08:20:44.659Z,33.99
2022-08-05T08:24:04.975Z,33.99
2022-08-05T08:27:08.499Z,34.26
2022-08-05T08:30:27.663Z,34.16
2022-08-05T08:33:37.448Z,33.50
2022-08-05T08:36:48.882Z,33.71
2022-08-05T08:39:57.078Z,33.52
2022-08-05T08:45:04.479Z,32.18
2022-08-05T08:46:24.266Z,31.98
2022-08-05T08:50:14.493Z,32.89
2022-08-05T08:52:56.746Z,32.05
2022-08-05T08:56:03.511Z,32.63
2022-08-05T08:59:19.500Z,31.83
2022-08-05T09:02:26.555Z,32.47
2022-08-05T09:05:38.406Z,32.40
2022-08-05T09:08:41.578Z,32.00
2022-08-05T09:11:51.111Z,31.73
2022-08-05T09:15:03.964Z,30.86
2022-08-05T09:18:10.103Z,31.34
2022-08-05T09:21:20.777Z,31.67
2022-08-05T09:24:24.177Z,31.69
2022-08-05T09:28:04.420Z,31.81
2022-08-05T09:31:22.060Z,30.76
2022-08-05T09:34:46.481Z,31.54
2022-08-05T09:38:17.389Z,31.07
2022-08-05T09:41:16.049Z,31.00
2022-08-05T09:44:36.588Z,31.47
2022-08-05T09:47:55.457Z,31.96
2022-08-05T09:50:59.844Z,31.67
2022-08-05T09:54:06.796Z,31.00
2022-08-05T09:57:20.640Z,31.45
2022-08-05T10:00:26.426Z,30.85
2022-08-05T10:03:56.882Z,31.36
2022-08-05T10:06:59.341Z,30.80
2022-08-05T10:10:15.573Z,30.98
2022-08-05T10:13:43.969Z,30.36
2022-08-05T10:16:53.209Z,31.22
2022-08-05T10:20:03.718Z,31.44
2022-08-05T10:23:34.321Z,29.98
2022-08-05T10:26:37.257Z,30.22
2022-08-05T10:30:06.719Z,29.77
2022-08-05T10:33:17.550Z,29.62
2022-08-05T10:36:23.648Z,29.45
2022-08-05T10:40:03.137Z,29.36
2022-08-05T10:43:02.544Z,30.07
2022-08-05T10:46:09.513Z,29.43
2022-08-05T10:49:16.849Z,29.50
2022-08-05T10:52:37.880Z,28.95
2022-08-05T10:56:21.215Z,28.91
2022-08-05T11:00:03.257Z,29.33
2022-08-05T11:03:23.497Z,28.99
2022-08-05T11:06:31.180Z,29.04
2022-08-05T11:09:46.355Z,29.20
2022-08-05T11:12:54.467Z,28.47
2022-08-05T11:16:22.005Z,28.53
2022-08-05T11:20:16.840Z,29.08
2022-08-05T11:22:54.833Z,28.28
2022-08-05T11:26:11.199Z,28.19
2022-08-05T11:29:34.813Z,28.12
2022-08-05T11:32:39.294Z,28.38
2022-08-05T11:36:07.415Z,28.34
2022-08-05T11:39:13.609Z,28.20
2022-08-05T11:42:18.396Z,28.15
2022-08-05T11:46:14.507Z,28.04
2022-08-05T11:48:43.283Z,28.22
2022-08-05T11:51:49.474Z,28.12
2022-08-05T11:54:54.944Z,27.79
2022-08-05T11:58:09.532Z,27.91
2022-08-05T12:01:19.150Z,27.84
2022-08-05T12:04:22.698Z,27.22
2022-08-05T12:08:09.491Z,27.02
2022-08-05T12:11:00.304Z,27.34
2022-08-05T12:14:08.520Z,27.71
2022-08-05T12:18:02.775Z,27.34
2022-08-05T12:20:38.533Z,26.56
2022-08-05T12:23:57.424Z,27.01
2022-08-05T12:27:09.963Z,27.03
2022-08-05T12:30:23.820Z,26.67
2022-08-05T12:33:37.167Z,26.26
2022-08-05T12:36:41.822Z,26.87
2022-08-05T12:39:44.861Z,26.79
2022-08-05T12:42:53.534Z,26.52
2022-08-05T12:45:56.642Z,26.62
2022-08-05T12:49:13.238Z,26.57
2022-08-05T12:52:25.579Z,26.69
2022-08-05T12:55:32.756Z,26.14
2022-08-05T12:58:38.786Z,26.40
2022-08-05T13:02:07.615Z,26.33
2022-08-05T13:05:12.481Z,26.02
2022-08-05T13:08:19.903Z,27.31
2022-08-05T13:12:01.255Z,26.44
2022-08-05T13:14:59.181Z,26.60
2022-08-05T13:18:07.907Z,26.60
2022-08-05T13:21:10.239Z,26.80
2022-08-05T13:24:14.979Z,26.17
2022-08-05T13:27:42.964Z,26.99
2022-08-05T13:30:45.099Z,26.86
2022-08-05T13:34:22.074Z,26.51
2022-08-05T13:37:13.015Z,26.17
2022-08-05T13:40:36.959Z,26.11
2022-08-05T13:43:44.651Z,25.99
2022-08-05T13:47:02.588Z,26.12
2022-08-05T13:50:14.819Z,25.94
2022-08-05T13:53:19.106Z,25.36
2022-08-05T13:56:21.283Z,26.19
2022-08-05T13:59:24.777Z,26.09
2022-08-05T14:02:31.268Z,25.99
2022-08-05T14:06:24.820Z,26.22
2022-08-05T14:08:55.776Z,26.54
2022-08-05T14:12:17.113Z,26.10
2022-08-05T14:16:08.273Z,25.54
2022-08-05T14:18:42.358Z,25.18
2022-08-05T14:22:08.472Z,25.19
2022-08-05T14:25:21.438Z,25.65
2022-08-05T14:28:26.163Z,25.20
2022-08-05T14:32:02.333Z,25.05
2022-08-05T14:34:52.566Z,24.90
